Time;durP1;ratioP1;P1;durP2;ratioP2;P2;SDS_P1;SDS_P2;PMS_P1;PMS_P2;Temp;Humidity;BMP_temperature;BMP_pressure;BME280_temperature;BME280_humidity;BME280_pressure;Samples;Min_cycle;Max_cycle;Signal;HPM_P1;HPM_P2
2022/03/04 00:00:26;;;;;;;18.77;14.23;;;;;;;;;;5078913;28;20506;-63
2022/03/04 00:02:52;;;;;;;23.00;14.90;;;;;;;;;;5096830;28;20201;-63
2022/03/04 00:05:18;;;;;;;22.17;15.27;;;;;;;;;;5097450;28;20403;-63
2022/03/04 00:07:44;;;;;;;27.07;15.20;;;;;;;;;;5096550;28;20257;-63
2022/03/04 00:10:10;;;;;;;24.93;15.30;;;;;;;;;;5078109;28;20411;-63
2022/03/04 00:12:36;;;;;;;23.63;14.70;;;;;;;;;;5097235;28;20776;-62
2022/03/04 00:15:02;;;;;;;32.73;17.47;;;;;;;;;;5079424;28;20181;-63
2022/03/04 00:17:28;;;;;;;25.53;17.37;;;;;;;;;;5078589;28;20208;-62
2022/03/04 00:19:54;;;;;;;26.90;17.83;;;;;;;;;;5078777;28;20184;-63
2022/03/04 00:22:20;;;;;;;37.97;22.67;;;;;;;;;;5078904;28;20628;-64
2022/03/04 00:24:46;;;;;;;27.70;19.53;;;;;;;;;;5078795;28;20201;-64
2022/03/04 00:27:12;;;;;;;24.13;14.70;;;;;;;;;;5096260;28;20934;-63
2022/03/04 00:29:38;;;;;;;22.20;15.63;;;;;;;;;;5095386;28;20653;-63
2022/03/04 00:32:04;;;;;;;21.80;16.10;;;;;;;;;;5096251;28;20418;-63
2022/03/04 00:34:30;;;;;;;32.43;19.73;;;;;;;;;;5096334;28;20439;-64
2022/03/04 00:36:56;;;;;;;32.27;22.20;;;;;;;;;;5096244;28;20458;-64
2022/03/04 00:39:23;;;;;;;30.97;19.10;;;;;;;;;;5077884;28;20181;-63
2022/03/04 00:41:49;;;;;;;24.90;16.77;;;;;;;;;;5096219;28;20440;-63
2022/03/04 00:44:15;;;;;;;22.50;16.07;;;;;;;;;;5095941;28;20505;-63
2022/03/04 00:46:41;;;;;;;25.20;16.30;;;;;;;;;;5095979;28;20431;-63
2022/03/04 00:49:07;;;;;;;20.10;14.80;;;;;;;;;;5096617;28;20321;-64
2022/03/04 00:51:33;;;;;;;20.80;15.17;;;;;;;;;;5096211;28;20408;-63
2022/03/04 00:53:59;;;;;;;21.57;15.33;;;;;;;;;;5096151;28;20180;-62
2022/03/04 00:56:25;;;;;;;23.97;15.53;;;;;;;;;;5077684;28;20551;-64
2022/03/04 00:58:51;;;;;;;22.37;16.17;;;;;;;;;;5096011;28;20411;-63
2022/03/04 01:01:17;;;;;;;22.90;16.73;;;;;;;;;;5095505;28;20407;-63
2022/03/04 01:03:43;;;;;;;23.00;16.10;;;;;;;;;;5095713;28;20608;-63
2022/03/04 01:06:09;;;;;;;24.07;16.90;;;;;;;;;;5095784;28;20430;-64
2022/03/04 01:08:35;;;;;;;25.67;17.20;;;;;;;;;;5095371;28;20200;-63
2022/03/04 01:11:02;;;;;;;25.30;17.03;;;;;;;;;;5077631;28;20177;-63
2022/03/04 01:13:28;;;;;;;24.10;16.40;;;;;;;;;;5095900;28;20633;-63
2022/03/04 01:15:54;;;;;;;24.43;16.43;;;;;;;;;;5077396;28;20836;-63
2022/03/04 01:18:21;;;;;;;25.57;16.80;;;;;;;;;;5095392;28;20411;-62
2022/03/04 01:20:47;;;;;;;23.00;16.03;;;;;;;;;;5095276;28;20419;-63
2022/03/04 01:23:13;;;;;;;24.33;16.90;;;;;;;;;;5077360;28;20562;-63
2022/03/04 01:25:39;;;;;;;26.03;17.90;;;;;;;;;;5076986;28;20415;-63
2022/03/04 01:28:05;;;;;;;23.03;16.80;;;;;;;;;;5095626;28;20465;-63
2022/03/04 01:30:31;;;;;;;21.50;16.63;;;;;;;;;;5095177;28;20169;-63
2022/03/04 01:32:57;;;;;;;25.23;17.17;;;;;;;;;;5077107;28;20700;-64
2022/03/04 01:35:23;;;;;;;23.93;17.03;;;;;;;;;;5095251;28;20268;-63
2022/03/04 01:37:49;;;;;;;25.50;17.80;;;;;;;;;;5095081;28;20231;-64
2022/03/04 01:40:15;;;;;;;23.13;17.43;;;;;;;;;;5095146;28;20260;-63
2022/03/04 01:42:41;;;;;;;30.03;17.30;;;;;;;;;;5094998;28;20442;-63
2022/03/04 01:45:09;;;;;;;23.57;16.33;;;;;;;;;;5094870;28;20770;-64
2022/03/04 01:47:35;;;;;;;25.83;17.23;;;;;;;;;;5077116;28;20445;-62
2022/03/04 01:50:03;;;;;;;26.60;16.40;;;;;;;;;;5076951;28;20403;-60
2022/03/04 01:52:29;;;;;;;23.70;15.93;;;;;;;;;;5076727;28;20411;-63
2022/03/04 01:54:55;;;;;;;25.60;17.57;;;;;;;;;;5076689;28;20522;-63
2022/03/04 01:57:21;;;;;;;21.47;16.07;;;;;;;;;;5076944;28;20758;-63
2022/03/04 01:59:47;;;;;;;25.03;16.93;;;;;;;;;;5094998;28;20178;-64
2022/03/04 02:02:13;;;;;;;25.23;18.03;;;;;;;;;;5076449;28;20552;-63
2022/03/04 02:04:39;;;;;;;28.10;17.67;;;;;;;;;;5076267;28;20201;-63
2022/03/04 02:07:05;;;;;;;27.55;20.83;;;;;;;;;;5075200;28;20377;-63
2022/03/04 02:09:31;;;;;;;23.00;17.23;;;;;;;;;;5076804;28;20173;-63
2022/03/04 02:11:57;;;;;;;25.43;16.97;;;;;;;;;;5095937;28;20423;-63
2022/03/04 02:14:23;;;;;;;25.53;17.70;;;;;;;;;;5094705;28;20173;-63
2022/03/04 02:16:51;;;;;;;23.07;17.53;;;;;;;;;;5094339;28;20441;-64
2022/03/04 02:19:18;;;;;;;24.33;17.60;;;;;;;;;;5094787;28;20177;-64
2022/03/04 02:21:51;;;;;;;25.30;16.43;;;;;;;;;;5076595;28;20430;-64
2022/03/04 02:24:18;;;;;;;27.57;17.97;;;;;;;;;;5076375;28;20542;-67
2022/03/04 02:26:44;;;;;;;29.77;18.33;;;;;;;;;;5076395;28;20502;-63
2022/03/04 02:29:10;;;;;;;24.57;17.37;;;;;;;;;;5076408;28;20505;-64
2022/03/04 02:31:36;;;;;;;28.13;18.77;;;;;;;;;;5094191;28;20411;-64
2022/03/04 02:34:02;;;;;;;28.63;18.17;;;;;;;;;;5094205;28;20419;-64
2022/03/04 02:36:28;;;;;;;31.17;17.93;;;;;;;;;;5075836;28;20216;-63
2022/03/04 02:38:54;;;;;;;26.83;18.23;;;;;;;;;;5076277;28;20464;-63
2022/03/04 02:41:20;;;;;;;27.87;17.97;;;;;;;;;;5076011;28;20195;-63
2022/03/04 02:43:46;;;;;;;23.67;16.87;;;;;;;;;;5075835;28;20201;-64
2022/03/04 02:46:15;;;;;;;30.00;16.87;;;;;;;;;;5094029;28;20433;-68
2022/03/04 02:48:41;;;;;;;28.17;16.87;;;;;;;;;;5094769;28;20532;-64
2022/03/04 02:51:07;;;;;;;26.87;16.90;;;;;;;;;;5075788;28;20404;-64
2022/03/04 02:53:33;;;;;;;27.87;18.23;;;;;;;;;;5098706;28;20173;-64
2022/03/04 02:55:59;;;;;;;29.53;18.20;;;;;;;;;;5080598;28;20446;-64
2022/03/04 02:58:25;;;;;;;27.37;17.27;;;;;;;;;;5098476;28;20822;-62
2022/03/04 03:00:51;;;;;;;28.40;18.70;;;;;;;;;;5098320;28;20230;-63
2022/03/04 03:03:17;;;;;;;23.10;16.37;;;;;;;;;;5079944;28;20201;-64
2022/03/04 03:05:43;;;;;;;28.33;17.70;;;;;;;;;;5097979;28;20403;-64
2022/03/04 03:08:10;;;;;;;30.07;18.73;;;;;;;;;;5097859;28;20302;-71
2022/03/04 03:10:36;;;;;;;25.10;16.80;;;;;;;;;;5098190;28;20166;-63
2022/03/04 03:13:02;;;;;;;36.93;17.77;;;;;;;;;;5097575;28;20414;-63
2022/03/04 03:15:28;;;;;;;24.93;16.87;;;;;;;;;;5097552;28;20415;-64
2022/03/04 03:17:55;;;;;;;27.63;18.43;;;;;;;;;;5079375;28;20201;-63
2022/03/04 03:20:20;;;;;;;30.13;18.13;;;;;;;;;;5079168;28;20507;-64
2022/03/04 03:22:47;;;;;;;28.40;17.93;;;;;;;;;;5097725;28;20422;-65
2022/03/04 03:25:13;;;;;;;25.23;17.60;;;;;;;;;;5079231;28;20260;-64
2022/03/04 03:27:39;;;;;;;23.87;16.60;;;;;;;;;;5079137;28;20489;-63
2022/03/04 03:30:06;;;;;;;29.43;18.97;;;;;;;;;;5097603;28;20253;-64
2022/03/04 03:32:32;;;;;;;27.70;18.87;;;;;;;;;;5097170;28;20491;-64
2022/03/04 03:34:58;;;;;;;29.17;18.07;;;;;;;;;;5097082;28;20443;-64
2022/03/04 03:37:24;;;;;;;26.97;17.63;;;;;;;;;;5078737;28;20463;-63
2022/03/04 03:39:50;;;;;;;27.13;17.97;;;;;;;;;;5097526;28;20185;-64
2022/03/04 03:42:16;;;;;;;28.17;17.50;;;;;;;;;;5096866;28;20255;-64
2022/03/04 03:44:42;;;;;;;28.43;19.60;;;;;;;;;;5078737;28;20542;-63
2022/03/04 03:47:09;;;;;;;26.00;17.63;;;;;;;;;;5078884;28;20602;-64
2022/03/04 03:49:35;;;;;;;28.50;17.80;;;;;;;;;;5097590;28;20165;-63
2022/03/04 03:52:01;;;;;;;28.87;18.77;;;;;;;;;;5096927;28;20406;-65
2022/03/04 03:54:27;;;;;;;30.83;19.77;;;;;;;;;;5078548;28;20235;-64
2022/03/04 03:56:53;;;;;;;28.47;18.43;;;;;;;;;;5096601;28;20204;-63
2022/03/04 03:59:19;;;;;;;23.90;17.23;;;;;;;;;;5096531;28;20208;-63
2022/03/04 04:01:45;;;;;;;27.93;18.10;;;;;;;;;;5097034;28;20177;-64
2022/03/04 04:04:12;;;;;;;24.73;17.27;;;;;;;;;;5078040;28;20600;-64
2022/03/04 04:06:39;;;;;;;27.60;18.10;;;;;;;;;;5078321;28;20446;-64
2022/03/04 04:09:05;;;;;;;28.37;18.90;;;;;;;;;;5096234;28;20417;-63
2022/03/04 04:11:35;;;;;;;26.50;17.20;;;;;;;;;;5096512;28;20404;-64
2022/03/04 04:14:01;;;;;;;23.87;17.33;;;;;;;;;;5077895;28;20267;-64
2022/03/04 04:16:27;;;;;;;29.00;18.63;;;;;;;;;;5077739;28;20442;-62
2022/03/04 04:18:53;;;;;;;32.33;19.23;;;;;;;;;;5095864;28;20415;-65
2022/03/04 04:21:19;;;;;;;29.77;17.90;;;;;;;;;;5077880;28;20185;-66
2022/03/04 04:23:45;;;;;;;28.00;17.47;;;;;;;;;;5077651;28;20237;-64
2022/03/04 04:26:11;;;;;;;32.73;19.03;;;;;;;;;;5095760;28;20422;-64
2022/03/04 04:28:37;;;;;;;28.07;18.27;;;;;;;;;;5095730;28;20227;-64
2022/03/04 04:31:03;;;;;;;27.90;17.63;;;;;;;;;;5096122;28;20532;-64
2022/03/04 04:33:31;;;;;;;26.63;17.63;;;;;;;;;;5095580;28;20590;-65
2022/03/04 04:35:57;;;;;;;27.80;18.53;;;;;;;;;;5095365;28;20571;-65
2022/03/04 04:38:23;;;;;;;28.43;18.43;;;;;;;;;;5077375;28;20403;-64
2022/03/04 04:40:49;;;;;;;30.03;17.77;;;;;;;;;;5077428;28;20410;-63
2022/03/04 04:43:15;;;;;;;33.57;18.23;;;;;;;;;;5095795;28;20884;-65
2022/03/04 04:45:42;;;;;;;25.97;17.77;;;;;;;;;;5095213;28;20407;-64
2022/03/04 04:48:08;;;;;;;27.53;19.60;;;;;;;;;;5077066;28;20665;-65
2022/03/04 04:50:33;;;;;;;30.17;18.10;;;;;;;;;;5095678;28;20435;-65
2022/03/04 04:52:59;;;;;;;26.47;18.33;;;;;;;;;;5095175;28;20181;-65
2022/03/04 04:55:26;;;;;;;30.40;18.83;;;;;;;;;;5077002;28;20253;-65
2022/03/04 04:57:51;;;;;;;28.40;16.80;;;;;;;;;;5076747;28;20440;-65
2022/03/04 05:00:17;;;;;;;28.27;19.00;;;;;;;;;;5095071;28;20772;-64
2022/03/04 05:02:44;;;;;;;33.37;19.67;;;;;;;;;;5095248;28;20173;-65
2022/03/04 05:05:10;;;;;;;28.17;18.20;;;;;;;;;;5076802;28;20693;-65
2022/03/04 05:07:36;;;;;;;28.17;18.57;;;;;;;;;;5094783;28;20466;-64
2022/03/04 05:10:03;;;;;;;27.00;17.83;;;;;;;;;;5095120;28;20453;-63
2022/03/04 05:12:29;;;;;;;28.40;18.97;;;;;;;;;;5076856;28;20425;-63
2022/03/04 05:14:55;;;;;;;27.43;15.87;;;;;;;;;;5094349;28;20914;-64
2022/03/04 05:17:22;;;;;;;30.80;19.77;;;;;;;;;;5094981;28;20431;-64
2022/03/04 05:19:48;;;;;;;30.77;18.47;;;;;;;;;;5076656;28;20436;-64
2022/03/04 05:22:14;;;;;;;30.90;19.27;;;;;;;;;;5076687;28;20420;-64
2022/03/04 05:24:40;;;;;;;28.17;19.20;;;;;;;;;;5076963;28;20478;-64
2022/03/04 05:27:06;;;;;;;28.50;17.53;;;;;;;;;;5076286;28;20686;-62
2022/03/04 05:29:32;;;;;;;30.73;18.70;;;;;;;;;;5094853;28;20179;-63
2022/03/04 05:31:58;;;;;;;32.13;19.40;;;;;;;;;;5076425;28;20177;-64
2022/03/04 05:34:24;;;;;;;30.53;19.17;;;;;;;;;;5076493;28;20231;-64
2022/03/04 05:36:50;;;;;;;29.23;18.77;;;;;;;;;;5116835;22;20580;-65
2022/03/04 05:39:16;;;;;;;32.17;19.50;;;;;;;;;;5076333;28;20459;-65
2022/03/04 05:41:42;;;;;;;34.33;19.63;;;;;;;;;;5076074;28;20184;-66
2022/03/04 05:44:08;;;;;;;30.53;20.10;;;;;;;;;;5094519;28;20200;-66
2022/03/04 05:46:34;;;;;;;33.97;20.57;;;;;;;;;;5094380;28;20191;-66
2022/03/04 05:49:02;;;;;;;33.73;20.60;;;;;;;;;;5094864;28;20540;-66
2022/03/04 05:51:29;;;;;;;31.40;19.27;;;;;;;;;;5075909;28;20423;-66
2022/03/04 05:53:55;;;;;;;35.20;20.87;;;;;;;;;;5076108;28;20419;-66
2022/03/04 05:56:21;;;;;;;35.47;20.13;;;;;;;;;;5075999;28;21052;-66
2022/03/04 05:58:47;;;;;;;37.53;21.60;;;;;;;;;;5094054;28;20172;-66
2022/03/04 06:01:13;;;;;;;36.97;21.63;;;;;;;;;;5075973;28;20427;-66
2022/03/04 06:03:39;;;;;;;36.70;21.87;;;;;;;;;;5075868;28;20462;-66
2022/03/04 06:06:06;;;;;;;38.27;22.87;;;;;;;;;;5094036;28;20660;-65
2022/03/04 06:08:32;;;;;;;36.00;22.13;;;;;;;;;;5093972;28;20263;-66
2022/03/04 06:10:58;;;;;;;38.57;21.47;;;;;;;;;;5093926;28;20407;-66
2022/03/04 06:13:24;;;;;;;39.37;21.53;;;;;;;;;;5094496;28;20483;-66
2022/03/04 06:15:50;;;;;;;31.00;20.20;;;;;;;;;;5093649;28;20456;-66
2022/03/04 06:18:16;;;;;;;33.67;20.57;;;;;;;;;;5075901;28;20435;-66
2022/03/04 06:20:43;;;;;;;28.10;19.33;;;;;;;;;;5077316;28;20418;-66
2022/03/04 06:23:09;;;;;;;33.83;20.50;;;;;;;;;;5081702;28;20231;-66
2022/03/04 06:25:35;;;;;;;29.90;19.47;;;;;;;;;;5088313;28;20498;-67
2022/03/04 06:28:02;;;;;;;30.30;19.13;;;;;;;;;;5102856;28;20454;-67
2022/03/04 06:30:29;;;;;;;31.37;19.73;;;;;;;;;;5094714;28;20257;-66
2022/03/04 06:35:41;;;;;;;27.67;18.77;;;;;;;;;;5094290;28;20527;-66
2022/03/04 06:38:07;;;;;;;33.77;19.30;;;;;;;;;;5093434;28;20447;-66
2022/03/04 06:40:33;;;;;;;32.07;20.40;;;;;;;;;;5093626;28;20404;-66
2022/03/04 06:42:59;;;;;;;28.20;17.93;;;;;;;;;;5093322;28;20184;-66
2022/03/04 06:45:25;;;;;;;30.70;19.00;;;;;;;;;;5093267;28;20407;-66
2022/03/04 06:47:51;;;;;;;31.57;19.23;;;;;;;;;;5093229;28;20196;-66
2022/03/04 06:50:17;;;;;;;28.33;18.10;;;;;;;;;;5093289;28;20188;-66
2022/03/04 06:52:43;;;;;;;30.17;19.67;;;;;;;;;;5076185;28;20422;-66
2022/03/04 06:55:09;;;;;;;31.07;17.93;;;;;;;;;;5075132;28;20513;-67
2022/03/04 06:57:35;;;;;;;32.20;20.10;;;;;;;;;;5093213;28;20265;-66
2022/03/04 07:00:02;;;;;;;28.60;19.40;;;;;;;;;;5093502;28;20963;-66
2022/03/04 07:02:28;;;;;;;33.00;19.37;;;;;;;;;;5074862;28;20188;-64
2022/03/04 07:04:54;;;;;;;33.87;20.30;;;;;;;;;;5074968;28;20466;-66
2022/03/04 07:07:20;;;;;;;30.90;19.37;;;;;;;;;;5093118;28;20430;-66
2022/03/04 07:09:46;;;;;;;27.37;18.00;;;;;;;;;;5093222;28;20252;-65
2022/03/04 07:12:12;;;;;;;31.90;19.50;;;;;;;;;;5093381;28;20668;-65
2022/03/04 07:14:38;;;;;;;29.80;18.17;;;;;;;;;;5074975;28;20182;-65
2022/03/04 07:17:04;;;;;;;35.70;20.60;;;;;;;;;;5093165;28;20443;-64
2022/03/04 07:19:30;;;;;;;36.23;19.20;;;;;;;;;;5093026;28;20549;-64
2022/03/04 07:21:56;;;;;;;34.43;20.77;;;;;;;;;;5093417;28;20411;-64
2022/03/04 07:24:22;;;;;;;31.23;20.07;;;;;;;;;;5075004;28;20254;-64
2022/03/04 07:26:48;;;;;;;34.10;19.60;;;;;;;;;;5093627;28;20280;-64
2022/03/04 07:29:14;;;;;;;31.33;20.20;;;;;;;;;;5075009;28;20181;-65
2022/03/04 07:31:39;;;;;;;41.43;21.50;;;;;;;;;;5075091;28;20186;-64
2022/03/04 07:34:05;;;;;;;35.17;19.10;;;;;;;;;;5093264;28;20173;-65
2022/03/04 07:36:33;;;;;;;31.10;18.13;;;;;;;;;;5075101;28;20213;-64
2022/03/04 07:38:59;;;;;;;35.50;20.43;;;;;;;;;;5077492;28;20181;-65
2022/03/04 07:41:25;;;;;;;37.73;20.80;;;;;;;;;;5078875;28;20468;-65
2022/03/04 07:43:51;;;;;;;37.37;20.60;;;;;;;;;;5078688;28;20201;-65
2022/03/04 07:46:17;;;;;;;37.30;20.00;;;;;;;;;;5078342;28;20415;-66
2022/03/04 07:48:43;;;;;;;42.03;21.10;;;;;;;;;;5078677;28;20267;-65
2022/03/04 07:51:09;;;;;;;36.03;20.20;;;;;;;;;;5096796;28;20445;-65
2022/03/04 07:53:35;;;;;;;33.53;18.87;;;;;;;;;;5078726;28;20423;-64
2022/03/04 07:56:01;;;;;;;34.77;19.93;;;;;;;;;;5096818;28;20411;-64
2022/03/04 07:58:27;;;;;;;32.23;19.70;;;;;;;;;;5096659;28;20777;-65
2022/03/04 08:00:53;;;;;;;33.67;18.87;;;;;;;;;;5096620;28;20254;-65
2022/03/04 08:03:19;;;;;;;32.80;20.33;;;;;;;;;;5096571;28;20247;-67
2022/03/04 08:05:45;;;;;;;36.63;18.83;;;;;;;;;;5096756;28;20169;-65
2022/03/04 08:08:11;;;;;;;34.80;19.10;;;;;;;;;;5078524;28;20197;-64
2022/03/04 08:10:37;;;;;;;29.07;17.67;;;;;;;;;;5096889;28;20418;-65
2022/03/04 08:13:04;;;;;;;29.67;18.83;;;;;;;;;;5078401;28;20178;-64
2022/03/04 08:15:30;;;;;;;31.43;19.90;;;;;;;;;;5078700;28;20594;-65
2022/03/04 08:17:56;;;;;;;32.87;17.90;;;;;;;;;;5097286;28;20967;-65
2022/03/04 08:20:22;;;;;;;35.20;18.97;;;;;;;;;;5078335;28;20412;-65
2022/03/04 08:22:48;;;;;;;27.27;17.27;;;;;;;;;;5096834;28;20403;-65
2022/03/04 08:25:14;;;;;;;29.57;17.93;;;;;;;;;;5096169;28;20456;-65
2022/03/04 08:27:41;;;;;;;31.33;18.57;;;;;;;;;;5096415;28;20901;-65
2022/03/04 08:30:10;;;;;;;29.23;18.13;;;;;;;;;;5095937;28;20173;-66
2022/03/04 08:32:36;;;;;;;24.67;16.73;;;;;;;;;;5096733;28;20411;-65
2022/03/04 08:35:03;;;;;;;27.43;16.10;;;;;;;;;;5078246;28;20415;-65
2022/03/04 08:37:29;;;;;;;27.60;18.57;;;;;;;;;;5077806;28;20513;-64
2022/03/04 08:39:55;;;;;;;25.77;17.17;;;;;;;;;;5077684;28;20427;-65
2022/03/04 08:42:21;;;;;;;29.17;18.17;;;;;;;;;;5095775;28;20181;-65
2022/03/04 08:44:47;;;;;;;29.77;18.23;;;;;;;;;;5077550;28;20481;-65
2022/03/04 08:47:13;;;;;;;31.30;18.27;;;;;;;;;;5077623;28;20201;-64
2022/03/04 08:49:39;;;;;;;27.17;17.23;;;;;;;;;;5095222;28;20169;-65
2022/03/04 08:52:06;;;;;;;27.93;18.17;;;;;;;;;;5095663;28;20414;-65
2022/03/04 08:54:32;;;;;;;27.03;17.17;;;;;;;;;;5095681;28;20256;-65
2022/03/04 08:56:58;;;;;;;27.73;17.10;;;;;;;;;;5077342;28;20439;-65
2022/03/04 08:59:24;;;;;;;25.60;17.10;;;;;;;;;;5077333;28;20426;-65
2022/03/04 09:01:50;;;;;;;27.13;17.23;;;;;;;;;;5095607;28;20177;-65
2022/03/04 09:04:17;;;;;;;24.27;16.10;;;;;;;;;;5077555;28;20232;-65
2022/03/04 09:06:43;;;;;;;28.23;16.80;;;;;;;;;;5095609;28;20197;-65
2022/03/04 09:09:09;;;;;;;27.83;17.43;;;;;;;;;;5077048;28;20469;-65
2022/03/04 09:11:35;;;;;;;26.70;17.10;;;;;;;;;;5095403;28;20177;-65
2022/03/04 09:14:02;;;;;;;32.23;17.77;;;;;;;;;;5077147;28;20184;-65
2022/03/04 09:16:29;;;;;;;28.90;18.10;;;;;;;;;;5095395;28;20197;-64
2022/03/04 09:18:55;;;;;;;31.70;17.60;;;;;;;;;;5077016;28;20222;-64
2022/03/04 09:21:21;;;;;;;30.37;17.90;;;;;;;;;;5095181;28;20169;-65
2022/03/04 09:23:47;;;;;;;33.20;16.37;;;;;;;;;;5077015;28;20209;-66
2022/03/04 09:26:13;;;;;;;30.90;17.63;;;;;;;;;;5076796;28;20226;-65
2022/03/04 09:28:39;;;;;;;27.27;17.80;;;;;;;;;;5077387;28;20216;-64
2022/03/04 09:31:05;;;;;;;27.83;17.87;;;;;;;;;;5096706;28;20516;-65
2022/03/04 09:33:31;;;;;;;27.13;17.23;;;;;;;;;;5097367;28;20230;-65
2022/03/04 09:35:57;;;;;;;31.07;18.83;;;;;;;;;;5096732;28;20716;-64
2022/03/04 09:38:24;;;;;;;28.97;17.73;;;;;;;;;;5096281;28;20232;-65
2022/03/04 09:40:50;;;;;;;25.20;16.87;;;;;;;;;;5097120;28;20589;-66
2022/03/04 09:43:20;;;;;;;26.67;18.83;;;;;;;;;;5097417;28;20563;-65
2022/03/04 09:45:47;;;;;;;28.00;19.50;;;;;;;;;;5097416;28;20173;-66
2022/03/04 09:48:13;;;;;;;28.27;16.23;;;;;;;;;;5098557;28;20296;-65
2022/03/04 09:50:39;;;;;;;35.50;19.23;;;;;;;;;;5076565;28;20189;-65
2022/03/04 09:53:09;;;;;;;28.67;18.37;;;;;;;;;;5094946;28;20184;-65
2022/03/04 09:55:36;;;;;;;29.20;17.70;;;;;;;;;;5094659;28;20162;-65
2022/03/04 09:58:02;;;;;;;32.43;17.37;;;;;;;;;;5094488;28;20200;-65
2022/03/04 10:00:28;;;;;;;25.97;17.50;;;;;;;;;;5094337;28;20214;-65
2022/03/04 10:02:54;;;;;;;27.43;16.47;;;;;;;;;;5076750;28;20231;-65
2022/03/04 10:05:20;;;;;;;32.90;17.03;;;;;;;;;;5113547;28;20305;-65
2022/03/04 10:07:48;;;;;;;27.57;17.80;;;;;;;;;;5080804;28;20197;-65
2022/03/04 10:10:18;;;;;;;27.50;18.00;;;;;;;;;;5095553;28;20261;-65
2022/03/04 10:12:58;;;;;;;25.97;16.97;;;;;;;;;;5096080;28;20173;-65
2022/03/04 10:15:27;;;;;;;26.87;17.87;;;;;;;;;;5096786;28;20218;-67
2022/03/04 10:18:04;;;;;;;27.83;17.93;;;;;;;;;;5094040;28;20207;-66
2022/03/04 10:20:34;;;;;;;30.93;18.80;;;;;;;;;;5075436;28;20177;-65
2022/03/04 10:23:14;;;;;;;27.47;17.93;;;;;;;;;;5075388;28;20192;-65
2022/03/04 10:25:43;;;;;;;27.47;18.13;;;;;;;;;;5096607;28;20173;-67
2022/03/04 10:28:09;;;;;;;25.13;17.37;;;;;;;;;;5078787;28;20300;-65
2022/03/04 10:30:36;;;;;;;24.37;17.47;;;;;;;;;;5097390;28;20173;-65
2022/03/04 10:33:05;;;;;;;30.30;17.93;;;;;;;;;;5095879;28;20680;-65
2022/03/04 10:35:31;;;;;;;29.67;17.43;;;;;;;;;;5093312;28;20205;-66
2022/03/04 10:37:57;;;;;;;28.17;17.57;;;;;;;;;;5093038;28;20239;-66
2022/03/04 10:40:24;;;;;;;27.13;16.87;;;;;;;;;;5093469;28;20173;-65
2022/03/04 10:42:55;;;;;;;24.97;16.37;;;;;;;;;;5075083;28;20268;-66
2022/03/04 10:45:25;;;;;;;26.73;16.30;;;;;;;;;;5093415;28;20238;-65
2022/03/04 10:47:53;;;;;;;25.60;15.87;;;;;;;;;;5093685;28;20204;-65
2022/03/04 10:50:32;;;;;;;28.50;17.93;;;;;;;;;;5093375;28;20633;-67
2022/03/04 10:53:05;;;;;;;23.53;15.70;;;;;;;;;;5075578;28;20255;-66
2022/03/04 10:55:48;;;;;;;27.90;16.83;;;;;;;;;;5093580;28;20173;-67
2022/03/04 10:58:28;;;;;;;23.87;17.83;;;;;;;;;;5093144;28;20192;-65
2022/03/04 11:00:56;;;;;;;30.77;17.43;;;;;;;;;;5093115;28;20176;-65
2022/03/04 11:03:26;;;;;;;27.33;18.53;;;;;;;;;;5092890;28;20299;-65
2022/03/04 11:05:53;;;;;;;25.10;17.20;;;;;;;;;;5093186;28;20219;-65
2022/03/04 11:08:20;;;;;;;28.50;17.40;;;;;;;;;;5093016;28;20199;-65
2022/03/04 11:10:47;;;;;;;24.77;16.47;;;;;;;;;;5093070;28;20169;-65
2022/03/04 11:13:13;;;;;;;28.07;17.50;;;;;;;;;;5094406;28;20222;-65
2022/03/04 11:15:40;;;;;;;28.47;17.27;;;;;;;;;;5097110;28;20655;-65
2022/03/04 11:18:08;;;;;;;26.37;17.63;;;;;;;;;;5078641;28;20196;-65
2022/03/04 11:20:34;;;;;;;26.00;14.47;;;;;;;;;;5078689;28;20177;-65
2022/03/04 11:23:00;;;;;;;25.37;17.50;;;;;;;;;;5096955;28;20184;-65
2022/03/04 11:25:34;;;;;;;24.73;16.73;;;;;;;;;;5096899;28;20181;-65
2022/03/04 11:28:08;;;;;;;25.70;14.93;;;;;;;;;;5096835;28;20220;-65
2022/03/04 11:30:37;;;;;;;25.50;17.43;;;;;;;;;;5078556;28;20265;-67
2022/03/04 11:33:07;;;;;;;23.83;17.47;;;;;;;;;;5096656;28;20706;-65
2022/03/04 11:35:42;;;;;;;24.83;17.50;;;;;;;;;;5096697;28;20177;-65
2022/03/04 11:38:12;;;;;;;23.23;16.93;;;;;;;;;;5096373;28;20295;-65
2022/03/04 11:40:41;;;;;;;23.80;16.70;;;;;;;;;;5096836;28;20264;-65
2022/03/04 11:43:09;;;;;;;29.80;16.20;;;;;;;;;;5096843;28;20173;-66
2022/03/04 11:45:35;;;;;;;26.40;17.47;;;;;;;;;;5096328;28;20239;-65
2022/03/04 11:48:02;;;;;;;20.90;15.30;;;;;;;;;;5096231;28;20197;-65
2022/03/04 11:50:31;;;;;;;22.80;16.03;;;;;;;;;;5118626;22;20229;-62
2022/03/04 11:53:14;;;;;;;22.33;16.17;;;;;;;;;;5096230;28;20169;-63
2022/03/04 11:55:40;;;;;;;22.60;16.80;;;;;;;;;;5096372;28;20169;-64
2022/03/04 11:58:06;;;;;;;25.37;15.23;;;;;;;;;;5096133;28;20173;-61
2022/03/04 12:00:33;;;;;;;25.00;16.33;;;;;;;;;;5095870;28;20194;-63
2022/03/04 12:03:00;;;;;;;20.53;15.07;;;;;;;;;;5095870;28;20185;-63
2022/03/04 12:05:32;;;;;;;26.50;16.80;;;;;;;;;;5096440;28;20173;-64
2022/03/04 12:08:01;;;;;;;22.53;15.67;;;;;;;;;;5077678;28;20270;-64
2022/03/04 12:10:30;;;;;;;21.70;15.47;;;;;;;;;;5077602;28;20208;-64
2022/03/04 12:12:59;;;;;;;23.87;15.50;;;;;;;;;;5095686;28;20546;-64
2022/03/04 12:15:26;;;;;;;23.03;15.53;;;;;;;;;;5095832;28;20214;-64
2022/03/04 12:17:59;;;;;;;21.00;14.87;;;;;;;;;;5095647;28;20657;-64
2022/03/04 12:20:51;;;;;;;23.27;15.13;;;;;;;;;;5096036;28;20197;-64
2022/03/04 12:23:18;;;;;;;22.77;16.37;;;;;;;;;;5095503;28;20277;-62
2022/03/04 12:25:53;;;;;;;21.80;15.80;;;;;;;;;;5095705;28;20173;-62
2022/03/04 12:28:20;;;;;;;27.20;16.17;;;;;;;;;;5077340;28;20269;-63
2022/03/04 12:31:07;;;;;;;21.97;15.90;;;;;;;;;;5095698;28;20197;-62
2022/03/04 12:33:34;;;;;;;22.77;16.40;;;;;;;;;;5078114;28;20220;-65
2022/03/04 12:36:01;;;;;;;21.13;14.23;;;;;;;;;;5077322;28;20246;-64
2022/03/04 12:38:28;;;;;;;21.63;15.83;;;;;;;;;;5077266;28;20205;-62
2022/03/04 12:40:57;;;;;;;22.70;15.03;;;;;;;;;;5077056;28;20254;-63
2022/03/04 12:43:23;;;;;;;21.97;15.17;;;;;;;;;;5095420;28;20772;-62
2022/03/04 12:45:50;;;;;;;22.63;15.30;;;;;;;;;;5077021;28;20181;-63
2022/03/04 12:48:17;;;;;;;22.50;16.33;;;;;;;;;;5077011;28;20177;-64
2022/03/04 12:50:43;;;;;;;24.80;15.50;;;;;;;;;;5094840;28;20216;-64
2022/03/04 12:53:22;;;;;;;23.30;16.07;;;;;;;;;;5095034;28;20238;-62
2022/03/04 12:55:49;;;;;;;20.63;15.43;;;;;;;;;;5095539;28;20165;-64
2022/03/04 12:58:15;;;;;;;25.40;15.37;;;;;;;;;;5094883;28;20180;-63
2022/03/04 13:00:41;;;;;;;22.77;14.10;;;;;;;;;;5095129;28;20571;-64
2022/03/04 13:03:22;;;;;;;21.60;14.77;;;;;;;;;;5076677;28;20665;-63
2022/03/04 13:05:48;;;;;;;23.87;14.77;;;;;;;;;;5095021;28;20214;-63
2022/03/04 13:08:15;;;;;;;24.30;15.37;;;;;;;;;;5076546;28;20173;-63
2022/03/04 13:10:41;;;;;;;21.50;15.33;;;;;;;;;;5094930;28;20189;-63
2022/03/04 13:13:07;;;;;;;21.47;15.10;;;;;;;;;;5094607;28;20642;-63
2022/03/04 13:15:34;;;;;;;20.17;13.93;;;;;;;;;;5094543;28;20173;-63
2022/03/04 13:18:03;;;;;;;22.27;15.27;;;;;;;;;;5076748;28;20326;-63
2022/03/04 13:20:29;;;;;;;22.47;15.03;;;;;;;;;;5094332;28;20192;-63
2022/03/04 13:23:08;;;;;;;22.90;14.30;;;;;;;;;;5094347;28;20221;-64
2022/03/04 13:25:34;;;;;;;20.57;14.30;;;;;;;;;;5094897;28;20287;-64
2022/03/04 13:28:01;;;;;;;19.67;13.90;;;;;;;;;;5094580;28;20184;-63
2022/03/04 13:30:27;;;;;;;23.90;14.03;;;;;;;;;;5094214;28;20196;-63
2022/03/04 13:32:56;;;;;;;19.90;14.80;;;;;;;;;;5094232;28;20256;-63
2022/03/04 13:35:24;;;;;;;19.00;14.27;;;;;;;;;;5093963;28;20260;-63
2022/03/04 13:37:50;;;;;;;22.57;13.90;;;;;;;;;;5076291;28;20556;-63
2022/03/04 13:40:17;;;;;;;19.80;13.87;;;;;;;;;;5094042;28;20232;-63
2022/03/04 13:42:47;;;;;;;19.43;14.20;;;;;;;;;;5094481;28;20184;-62
2022/03/04 13:45:14;;;;;;;19.97;13.77;;;;;;;;;;5094020;28;20197;-61
2022/03/04 13:47:46;;;;;;;25.40;15.13;;;;;;;;;;5075897;28;20226;-63
2022/03/04 13:50:24;;;;;;;19.57;13.97;;;;;;;;;;5093854;28;20577;-62
2022/03/04 13:52:57;;;;;;;22.37;13.40;;;;;;;;;;5094138;28;20218;-62
2022/03/04 13:55:42;;;;;;;20.07;14.10;;;;;;;;;;5075891;28;20173;-64
2022/03/04 13:58:08;;;;;;;19.97;13.17;;;;;;;;;;5094197;28;20173;-64
2022/03/04 14:00:35;;;;;;;19.10;13.60;;;;;;;;;;5093910;28;20272;-64
2022/03/04 14:03:05;;;;;;;21.37;14.03;;;;;;;;;;5075576;28;20234;-64
2022/03/04 14:05:32;;;;;;;19.43;13.67;;;;;;;;;;5093694;28;20181;-64
2022/03/04 14:08:10;;;;;;;24.50;14.70;;;;;;;;;;5094228;28;20173;-64
2022/03/04 14:10:37;;;;;;;23.20;14.70;;;;;;;;;;5094244;28;20295;-65
2022/03/04 14:13:04;;;;;;;20.13;13.43;;;;;;;;;;5093694;28;20620;-64
2022/03/04 14:15:35;;;;;;;21.47;14.33;;;;;;;;;;5093612;28;20177;-64
2022/03/04 14:18:02;;;;;;;16.90;12.80;;;;;;;;;;5093841;28;20169;-64